createdAt,value
2022-10-19T00:00:06.786Z,100.00
2022-10-19T00:02:08.434Z,100.00
2022-10-19T00:04:10.085Z,100.00
2022-10-19T00:06:15.018Z,100.00
2022-10-19T00:08:16.540Z,100.00
2022-10-19T00:10:18.271Z,100.00
2022-10-19T00:12:19.793Z,100.00
2022-10-19T00:14:23.930Z,100.00
2022-10-19T00:16:27.290Z,100.00
2022-10-19T00:18:28.962Z,100.00
2022-10-19T00:20:30.467Z,100.00
2022-10-19T00:22:32.320Z,100.00
2022-10-19T00:24:34.160Z,100.00
2022-10-19T00:26:35.938Z,100.00
2022-10-19T00:28:37.947Z,100.00
2022-10-19T00:30:40.901Z,100.00
2022-10-19T00:32:42.629Z,100.00
2022-10-19T00:34:44.187Z,100.00
2022-10-19T00:36:45.676Z,100.00
2022-10-19T00:38:47.297Z,100.00
2022-10-19T00:40:49.347Z,100.00
2022-10-19T00:42:54.592Z,100.00
2022-10-19T00:45:02.210Z,100.00
2022-10-19T00:47:07.297Z,100.00
2022-10-19T00:49:12.853Z,100.00
2022-10-19T00:51:14.683Z,100.00
2022-10-19T00:53:16.788Z,100.00
2022-10-19T00:55:18.687Z,100.00
2022-10-19T00:57:22.711Z,100.00
2022-10-19T00:59:24.990Z,100.00
2022-10-19T01:01:28.723Z,100.00
2022-10-19T01:03:32.425Z,100.00
2022-10-19T01:05:35.062Z,100.00
2022-10-19T01:07:36.819Z,100.00
2022-10-19T01:09:38.601Z,100.00
2022-10-19T01:11:51.275Z,100.00
2022-10-19T01:14:04.521Z,100.00
2022-10-19T01:16:16.411Z,100.00
2022-10-19T01:18:22.103Z,100.00
2022-10-19T01:20:57.032Z,100.00
2022-10-19T01:23:12.966Z,100.00
2022-10-19T01:25:22.770Z,100.00
2022-10-19T01:27:41.062Z,100.00
2022-10-19T01:30:03.186Z,100.00
2022-10-19T01:32:09.735Z,100.00
2022-10-19T01:34:17.691Z,100.00
2022-10-19T01:36:28.882Z,100.00
2022-10-19T01:38:37.668Z,100.00
2022-10-19T01:40:46.339Z,100.00
2022-10-19T01:42:57.644Z,100.00
2022-10-19T01:45:05.864Z,100.00
2022-10-19T01:47:11.206Z,100.00
2022-10-19T01:49:23.843Z,100.00
2022-10-19T01:51:30.889Z,100.00
2022-10-19T01:53:38.274Z,100.00
2022-10-19T01:55:44.397Z,100.00
2022-10-19T01:57:48.744Z,100.00
2022-10-19T01:59:50.984Z,100.00
2022-10-19T02:01:55.437Z,100.00
2022-10-19T02:03:57.897Z,100.00
2022-10-19T02:05:59.926Z,100.00
2022-10-19T02:08:06.347Z,100.00
2022-10-19T02:10:08.653Z,100.00
2022-10-19T02:12:12.113Z,100.00
2022-10-19T02:14:16.901Z,100.00
2022-10-19T02:16:23.721Z,100.00
2022-10-19T02:18:31.267Z,100.00
2022-10-19T02:20:35.477Z,100.00
2022-10-19T02:22:37.355Z,100.00
2022-10-19T02:24:38.938Z,100.00
2022-10-19T02:26:41.528Z,100.00
2022-10-19T02:28:43.165Z,100.00
2022-10-19T02:30:44.810Z,100.00
2022-10-19T02:32:46.417Z,100.00
2022-10-19T02:34:49.505Z,100.00
2022-10-19T02:36:51.123Z,100.00
2022-10-19T02:38:52.868Z,100.00
2022-10-19T02:41:02.920Z,100.00
2022-10-19T02:43:12.947Z,100.00
2022-10-19T02:45:21.677Z,100.00
2022-10-19T02:47:27.378Z,100.00
2022-10-19T02:49:29.916Z,100.00
2022-10-19T02:51:34.653Z,100.00
2022-10-19T02:53:36.145Z,100.00
2022-10-19T02:55:38.050Z,100.00
2022-10-19T02:57:39.705Z,100.00
2022-10-19T02:59:41.261Z,100.00
2022-10-19T03:01:42.749Z,100.00
2022-10-19T03:03:44.355Z,100.00
2022-10-19T03:05:45.854Z,100.00
2022-10-19T03:07:48.758Z,100.00
2022-10-19T03:09:50.984Z,100.00
2022-10-19T03:11:52.580Z,100.00
2022-10-19T03:13:54.098Z,100.00
2022-10-19T03:15:55.619Z,100.00
2022-10-19T03:17:57.276Z,100.00
2022-10-19T03:19:58.824Z,100.00
2022-10-19T03:22:00.348Z,100.00
2022-10-19T03:24:06.227Z,100.00
2022-10-19T03:26:11.505Z,100.00
2022-10-19T03:28:13.887Z,100.00
2022-10-19T03:30:15.625Z,100.00
2022-10-19T03:32:17.107Z,100.00
2022-10-19T03:34:18.900Z,100.00
2022-10-19T03:36:22.417Z,100.00
2022-10-19T03:38:23.911Z,100.00
2022-10-19T03:40:26.774Z,100.00
2022-10-19T03:42:28.292Z,100.00
2022-10-19T03:44:29.791Z,100.00
2022-10-19T03:46:32.164Z,100.00
2022-10-19T03:48:33.857Z,100.00
2022-10-19T03:50:35.350Z,100.00
2022-10-19T03:52:36.896Z,100.00
2022-10-19T03:54:38.596Z,100.00
2022-10-19T03:56:42.458Z,100.00
2022-10-19T03:58:46.317Z,100.00
2022-10-19T04:00:47.815Z,100.00
2022-10-19T04:02:49.388Z,100.00
2022-10-19T04:04:50.932Z,100.00
2022-10-19T04:06:52.467Z,100.00
2022-10-19T04:08:54.645Z,100.00
2022-10-19T04:10:59.576Z,100.00
2022-10-19T04:13:02.456Z,100.00
2022-10-19T04:15:04.468Z,100.00
2022-10-19T04:17:06.497Z,100.00
2022-10-19T04:19:08.577Z,100.00
2022-10-19T04:21:21.533Z,100.00
2022-10-19T04:23:23.680Z,100.00
2022-10-19T04:25:25.159Z,100.00
2022-10-19T04:27:26.998Z,100.00
2022-10-19T04:29:30.910Z,100.00
2022-10-19T04:31:32.434Z,100.00
2022-10-19T04:33:34.901Z,100.00
2022-10-19T04:35:36.450Z,100.00
2022-10-19T04:37:37.941Z,100.00
2022-10-19T04:39:39.663Z,100.00
2022-10-19T04:41:41.210Z,100.00
2022-10-19T04:43:43.018Z,100.00
2022-10-19T04:45:45.870Z,100.00
2022-10-19T04:47:47.344Z,100.00
2022-10-19T04:49:48.811Z,100.00
2022-10-19T04:51:50.338Z,100.00
2022-10-19T04:53:53.410Z,100.00
2022-10-19T04:55:57.258Z,100.00
2022-10-19T04:57:58.731Z,100.00
2022-10-19T05:00:00.282Z,100.00
2022-10-19T05:02:03.234Z,100.00
2022-10-19T05:04:04.747Z,100.00
2022-10-19T05:06:07.044Z,100.00
2022-10-19T05:08:09.594Z,100.00
2022-10-19T05:10:13.667Z,100.00
2022-10-19T05:12:15.335Z,100.00
2022-10-19T05:14:16.977Z,100.00
2022-10-19T05:16:20.604Z,100.00
2022-10-19T05:18:23.545Z,100.00
2022-10-19T05:20:25.202Z,100.00
2022-10-19T05:22:26.699Z,100.00
2022-10-19T05:24:28.295Z,100.00
2022-10-19T05:26:29.816Z,100.00
2022-10-19T05:28:32.249Z,100.00
2022-10-19T05:30:33.805Z,100.00
2022-10-19T05:32:35.572Z,100.00
2022-10-19T05:34:38.378Z,100.00
2022-10-19T05:36:40.356Z,100.00
2022-10-19T05:38:42.419Z,100.00
2022-10-19T05:40:51.535Z,100.00
2022-10-19T05:42:55.265Z,100.00
2022-10-19T05:44:56.790Z,100.00
2022-10-19T05:46:58.280Z,100.00
2022-10-19T05:49:00.419Z,100.00
2022-10-19T05:51:04.490Z,100.00
2022-10-19T05:53:05.967Z,100.00
2022-10-19T05:55:08.553Z,100.00
2022-10-19T05:57:10.168Z,100.00
2022-10-19T05:59:19.094Z,100.00
2022-10-19T06:01:20.630Z,100.00
2022-10-19T06:03:22.717Z,100.00
2022-10-19T06:05:24.254Z,100.00
2022-10-19T06:07:27.194Z,100.00
2022-10-19T06:09:28.684Z,100.00
2022-10-19T06:11:32.322Z,100.00
2022-10-19T06:13:34.145Z,100.00
2022-10-19T06:15:35.744Z,100.00
2022-10-19T06:17:37.267Z,100.00
2022-10-19T06:19:38.825Z,100.00
2022-10-19T06:21:43.280Z,100.00
2022-10-19T06:23:51.575Z,100.00
2022-10-19T06:25:53.141Z,100.00
2022-10-19T06:27:54.774Z,100.00
2022-10-19T06:29:56.240Z,100.00
2022-10-19T06:31:57.813Z,100.00
2022-10-19T06:33:59.561Z,100.00
2022-10-19T06:36:05.647Z,100.00
2022-10-19T06:38:07.128Z,100.00
2022-10-19T06:40:11.382Z,100.00
2022-10-19T06:42:12.888Z,100.00
2022-10-19T06:44:14.416Z,100.00
2022-10-19T06:46:16.961Z,100.00
2022-10-19T06:48:18.545Z,100.00
2022-10-19T06:50:20.106Z,100.00
2022-10-19T06:52:21.656Z,100.00
2022-10-19T06:54:23.153Z,100.00
2022-10-19T06:56:26.636Z,100.00
2022-10-19T06:58:28.708Z,100.00
2022-10-19T07:00:31.053Z,100.00
2022-10-19T07:02:33.403Z,100.00
2022-10-19T07:04:34.863Z,100.00
2022-10-19T07:06:36.402Z,100.00
2022-10-19T07:08:39.514Z,100.00
2022-10-19T07:10:41.038Z,100.00
2022-10-19T07:12:43.678Z,100.00
2022-10-19T07:14:45.358Z,100.00
2022-10-19T07:16:49.311Z,100.00
2022-10-19T07:18:52.672Z,100.00
2022-10-19T07:20:55.816Z,100.00
2022-10-19T07:22:57.294Z,100.00
2022-10-19T07:24:58.800Z,100.00
2022-10-19T07:27:00.455Z,100.00
2022-10-19T07:29:04.237Z,100.00
2022-10-19T07:31:07.279Z,100.00
2022-10-19T07:33:08.851Z,100.00
2022-10-19T07:35:10.381Z,100.00
2022-10-19T07:37:11.854Z,100.00
2022-10-19T07:39:14.183Z,100.00
2022-10-19T07:41:17.813Z,100.00
2022-10-19T07:43:19.279Z,100.00
2022-10-19T07:45:22.104Z,100.00
2022-10-19T07:47:23.590Z,100.00
2022-10-19T07:49:25.245Z,100.00
2022-10-19T07:51:26.776Z,100.00
2022-10-19T07:53:28.634Z,100.00
2022-10-19T07:55:30.115Z,100.00
2022-10-19T07:57:31.634Z,100.00
2022-10-19T07:59:34.166Z,100.00
2022-10-19T08:01:40.090Z,100.00
2022-10-19T08:04:48.579Z,100.00
2022-10-19T08:06:05.400Z,100.00
2022-10-19T08:08:06.971Z,100.00
2022-10-19T08:10:09.318Z,99.67
2022-10-19T08:12:14.883Z,100.00
2022-10-19T08:14:17.218Z,98.98
2022-10-19T08:16:23.209Z,99.60
2022-10-19T08:18:26.086Z,99.47
2022-10-19T08:20:27.615Z,98.85
2022-10-19T08:22:29.085Z,99.92
2022-10-19T08:24:30.836Z,99.62
2022-10-19T08:26:35.003Z,99.56
2022-10-19T08:28:36.570Z,100.00
2022-10-19T08:30:38.013Z,100.00
2022-10-19T08:32:39.643Z,99.66
2022-10-19T08:34:42.758Z,100.00
2022-10-19T08:36:44.496Z,100.00
2022-10-19T08:38:46.286Z,100.00
2022-10-19T08:40:47.867Z,100.00
2022-10-19T08:42:57.961Z,100.00
2022-10-19T08:45:25.707Z,100.00
2022-10-19T08:47:46.957Z,100.00
2022-10-19T08:49:50.057Z,98.22
2022-10-19T08:51:56.028Z,98.84
2022-10-19T08:54:00.361Z,98.60
2022-10-19T08:56:26.997Z,97.62
2022-10-19T08:58:45.575Z,96.39
2022-10-19T09:00:53.235Z,96.23
2022-10-19T09:02:59.127Z,95.89
2022-10-19T09:05:13.549Z,94.04
2022-10-19T09:07:25.554Z,93.43
2022-10-19T09:09:29.901Z,93.06
2022-10-19T09:11:35.345Z,93.80
2022-10-19T09:14:00.513Z,92.92
2022-10-19T09:16:04.041Z,92.83
2022-10-19T09:18:10.509Z,93.29
2022-10-19T09:20:19.552Z,93.19
2022-10-19T09:22:27.492Z,93.41
2022-10-19T09:24:36.756Z,93.13
2022-10-19T09:26:46.963Z,92.74
2022-10-19T09:28:53.894Z,92.13
2022-10-19T09:30:58.312Z,90.99
2022-10-19T09:33:01.042Z,90.66
2022-10-19T09:35:06.224Z,89.76
2022-10-19T09:37:17.822Z,87.75
2022-10-19T09:39:27.068Z,87.59
2022-10-19T09:41:31.252Z,86.81
2022-10-19T09:43:33.246Z,87.28
2022-10-19T09:45:40.151Z,86.81
2022-10-19T09:47:45.748Z,86.55
2022-10-19T09:49:49.035Z,87.12
2022-10-19T09:51:52.747Z,88.40
2022-10-19T09:53:56.034Z,88.41
2022-10-19T09:56:00.078Z,87.32
2022-10-19T09:58:05.312Z,86.92
2022-10-19T10:00:07.406Z,86.39
2022-10-19T10:02:16.101Z,85.62
2022-10-19T10:04:18.373Z,83.31
2022-10-19T10:06:22.206Z,85.34
2022-10-19T10:08:26.546Z,84.80
2022-10-19T10:10:31.362Z,84.02
2022-10-19T10:12:35.111Z,83.77
2022-10-19T10:14:37.177Z,84.21
2022-10-19T10:18:56.615Z,83.63
2022-10-19T10:21:01.853Z,83.65
2022-10-19T10:23:05.992Z,81.22
2022-10-19T10:25:13.605Z,81.13
2022-10-19T10:27:29.517Z,82.49
2022-10-19T10:29:32.968Z,80.50
2022-10-19T10:31:35.297Z,79.73
2022-10-19T10:33:45.027Z,79.96
2022-10-19T10:35:49.339Z,80.13
2022-10-19T10:37:51.719Z,81.24
2022-10-19T10:39:56.617Z,80.78
2022-10-19T10:42:09.767Z,77.79
2022-10-19T10:44:19.459Z,78.64
2022-10-19T10:46:24.425Z,79.65
2022-10-19T10:48:30.237Z,77.19
2022-10-19T10:50:35.817Z,73.99
2022-10-19T10:52:38.082Z,73.94
2022-10-19T10:54:40.390Z,72.60
2022-10-19T10:56:43.319Z,70.08
2022-10-19T10:58:50.034Z,69.64
2022-10-19T11:00:53.556Z,69.85
2022-10-19T11:03:00.757Z,69.92
2022-10-19T11:05:07.256Z,69.09
2022-10-19T11:07:18.076Z,69.66
2022-10-19T11:09:26.179Z,70.10
2022-10-19T11:11:32.264Z,70.15
2022-10-19T11:13:41.106Z,68.78
2022-10-19T11:15:52.231Z,67.10
2022-10-19T11:18:04.118Z,66.52
2022-10-19T11:20:07.436Z,67.05
2022-10-19T11:22:22.292Z,63.67
2022-10-19T11:24:35.244Z,61.37
2022-10-19T11:26:50.302Z,60.78
2022-10-19T11:29:06.298Z,60.52
2022-10-19T11:31:16.345Z,61.40
2022-10-19T11:33:36.720Z,61.16
2022-10-19T11:35:44.000Z,60.76
2022-10-19T11:38:17.385Z,61.23
2022-10-19T11:40:23.029Z,62.86
2022-10-19T11:42:37.508Z,61.49
2022-10-19T11:44:50.246Z,61.62
2022-10-19T11:47:16.725Z,58.93
2022-10-19T11:49:31.428Z,58.22
2022-10-19T11:51:39.437Z,59.04
2022-10-19T11:53:52.088Z,59.60
2022-10-19T11:56:00.161Z,59.34
2022-10-19T11:58:14.675Z,59.03
2022-10-19T12:00:39.364Z,58.61
2022-10-19T12:03:09.571Z,57.62
2022-10-19T12:05:17.348Z,58.33
2022-10-19T12:07:34.968Z,57.21
2022-10-19T12:09:47.564Z,57.51
2022-10-19T12:12:02.261Z,56.97
2022-10-19T12:14:08.149Z,57.59
2022-10-19T12:16:13.191Z,57.79
2022-10-19T12:18:29.525Z,57.74
2022-10-19T12:20:37.329Z,58.14
2022-10-19T12:22:40.127Z,59.96
2022-10-19T12:24:41.774Z,59.07
2022-10-19T12:26:44.929Z,59.24
2022-10-19T12:28:49.882Z,57.80
2022-10-19T12:30:53.149Z,58.18
2022-10-19T12:33:16.388Z,57.64
2022-10-19T12:35:28.444Z,57.47
2022-10-19T12:37:38.031Z,57.41
2022-10-19T12:39:45.743Z,57.78
2022-10-19T12:41:51.854Z,57.46
2022-10-19T12:44:11.972Z,59.27
2022-10-19T12:46:21.936Z,58.81
2022-10-19T12:48:23.856Z,58.66
2022-10-19T12:51:12.188Z,58.57
2022-10-19T12:53:23.463Z,59.21
2022-10-19T12:55:28.521Z,59.85
2022-10-19T12:57:30.447Z,58.10
2022-10-19T12:59:34.038Z,58.41
2022-10-19T13:01:44.059Z,57.23
2022-10-19T13:03:45.765Z,58.76
2022-10-19T13:05:56.617Z,58.98
2022-10-19T13:08:01.313Z,58.73
2022-10-19T13:10:07.150Z,59.07
2022-10-19T13:12:29.525Z,58.59
2022-10-19T13:14:44.809Z,57.40
2022-10-19T13:17:01.698Z,56.83
2022-10-19T13:19:17.443Z,57.70
2022-10-19T13:21:43.199Z,58.40
2022-10-19T13:23:45.252Z,58.27
2022-10-19T13:26:24.540Z,55.49
2022-10-19T13:28:37.376Z,54.67
2022-10-19T13:31:09.341Z,53.42
2022-10-19T13:33:47.939Z,53.00
2022-10-19T13:35:49.568Z,54.08
2022-10-19T13:38:20.350Z,54.86
2022-10-19T13:40:24.660Z,53.81
2022-10-19T13:42:28.163Z,53.92
2022-10-19T13:44:33.399Z,53.41
2022-10-19T13:46:47.637Z,53.33
2022-10-19T13:49:32.653Z,53.71
2022-10-19T13:51:45.055Z,54.32
2022-10-19T13:53:54.080Z,54.81
2022-10-19T13:56:16.872Z,54.08
2022-10-19T13:58:40.311Z,54.37
2022-10-19T14:00:59.200Z,54.66
2022-10-19T14:03:11.766Z,54.26
2022-10-19T14:05:44.838Z,52.06
2022-10-19T14:07:57.648Z,52.70
2022-10-19T14:10:07.823Z,53.90
2022-10-19T14:12:18.992Z,54.17
2022-10-19T14:14:23.739Z,55.32
2022-10-19T14:16:25.301Z,56.37
2022-10-19T14:18:29.454Z,57.18
2022-10-19T14:20:33.890Z,57.63
2022-10-19T14:22:36.398Z,57.98
2022-10-19T14:24:37.858Z,58.84
2022-10-19T14:26:39.429Z,59.38
2022-10-19T14:28:42.078Z,59.20
2022-10-19T14:30:53.824Z,59.80
2022-10-19T14:32:59.408Z,59.31
2022-10-19T14:35:15.770Z,60.06
2022-10-19T14:37:19.741Z,59.63
2022-10-19T14:39:29.215Z,59.88
2022-10-19T14:41:32.424Z,60.44
2022-10-19T14:43:34.924Z,60.92
2022-10-19T14:45:36.469Z,60.85
2022-10-19T14:47:50.961Z,61.38
2022-10-19T14:49:52.682Z,61.46
2022-10-19T14:51:58.617Z,62.89
2022-10-19T14:54:05.795Z,61.18
2022-10-19T14:56:14.241Z,61.01
2022-10-19T14:58:19.110Z,61.19
2022-10-19T15:00:23.117Z,62.13
2022-10-19T15:02:28.865Z,62.17
2022-10-19T15:04:34.614Z,61.16
2022-10-19T15:06:37.882Z,59.97
2022-10-19T15:08:42.281Z,60.40
2022-10-19T15:10:46.925Z,60.66
2022-10-19T15:12:49.551Z,59.28
2022-10-19T15:14:51.123Z,60.15
2022-10-19T15:16:54.159Z,60.43
2022-10-19T15:18:55.997Z,61.60
2022-10-19T15:21:12.301Z,61.40
2022-10-19T15:23:37.142Z,61.44
2022-10-19T15:25:38.707Z,62.00
2022-10-19T15:27:42.254Z,61.25
2022-10-19T15:29:55.033Z,62.77
2022-10-19T15:32:12.043Z,62.74
2022-10-19T15:34:24.466Z,63.05
2022-10-19T15:36:28.673Z,62.82
2022-10-19T15:38:33.047Z,63.13
2022-10-19T15:40:37.788Z,63.56
2022-10-19T15:42:41.155Z,64.01
2022-10-19T15:44:44.014Z,64.53
2022-10-19T15:47:15.150Z,64.91
2022-10-19T15:49:51.502Z,65.46
2022-10-19T15:51:54.397Z,64.96
2022-10-19T15:53:58.416Z,64.53
2022-10-19T15:58:09.803Z,65.61
2022-10-19T16:00:13.722Z,66.05
2022-10-19T16:02:15.415Z,66.50
2022-10-19T16:04:17.198Z,66.59
2022-10-19T16:06:20.032Z,65.78
2022-10-19T16:08:22.911Z,66.36
2022-10-19T16:10:26.484Z,67.50
2022-10-19T16:12:28.023Z,66.98
2022-10-19T16:14:31.940Z,67.00
2022-10-19T16:16:37.403Z,68.16
2022-10-19T16:18:38.892Z,68.87
2022-10-19T16:20:40.438Z,69.22
2022-10-19T16:22:42.225Z,69.51
2022-10-19T16:24:45.074Z,69.05
2022-10-19T16:26:46.681Z,69.68
2022-10-19T16:28:48.759Z,71.36
2022-10-19T16:30:52.404Z,71.87
2022-10-19T16:32:54.301Z,72.26
2022-10-19T16:34:55.801Z,72.22
2022-10-19T16:36:57.549Z,72.87
2022-10-19T16:39:01.849Z,73.30
2022-10-19T16:41:07.397Z,74.20
2022-10-19T16:43:08.947Z,74.87
2022-10-19T16:45:11.391Z,74.15
2022-10-19T16:47:12.965Z,73.72
2022-10-19T16:49:14.497Z,75.30
2022-10-19T16:51:23.948Z,75.92
2022-10-19T16:53:25.529Z,75.38
2022-10-19T16:55:28.542Z,75.77
2022-10-19T16:57:31.424Z,76.75
2022-10-19T16:59:32.904Z,77.69
2022-10-19T17:01:34.991Z,77.71
2022-10-19T17:03:36.744Z,77.83
2022-10-19T17:05:38.350Z,77.94
2022-10-19T17:07:39.836Z,78.61
2022-10-19T17:09:42.638Z,79.30
2022-10-19T17:11:44.698Z,79.69
2022-10-19T17:13:49.880Z,79.92
2022-10-19T17:15:53.873Z,80.21
2022-10-19T17:17:55.479Z,80.21
2022-10-19T17:19:57.017Z,80.36
2022-10-19T17:21:58.600Z,80.78
2022-10-19T17:24:02.315Z,81.36
2022-10-19T17:26:04.815Z,81.58
2022-10-19T17:28:06.454Z,81.80
2022-10-19T17:30:12.042Z,81.74
2022-10-19T17:32:13.579Z,82.44
2022-10-19T17:34:15.585Z,82.82
2022-10-19T17:36:19.682Z,83.25
2022-10-19T17:38:21.238Z,83.49
2022-10-19T17:40:22.739Z,83.97
2022-10-19T17:42:24.267Z,84.04
2022-10-19T17:44:25.751Z,84.44
2022-10-19T17:46:31.068Z,84.62
2022-10-19T17:48:32.713Z,85.53
2022-10-19T17:50:34.200Z,85.89
2022-10-19T17:52:35.957Z,86.61
2022-10-19T17:54:48.561Z,87.17
2022-10-19T17:56:59.380Z,87.58
2022-10-19T17:59:01.045Z,88.26
2022-10-19T18:01:06.247Z,88.22
2022-10-19T18:03:09.179Z,87.19
2022-10-19T18:05:10.935Z,88.02
2022-10-19T18:07:12.395Z,89.16
2022-10-19T18:09:13.945Z,89.87
2022-10-19T18:11:17.767Z,89.57
2022-10-19T18:13:19.240Z,90.07
2022-10-19T18:15:20.711Z,90.48
2022-10-19T18:17:25.449Z,88.25
2022-10-19T18:19:30.643Z,86.86
2022-10-19T18:21:34.545Z,85.71
2022-10-19T18:23:36.390Z,84.88
2022-10-19T18:25:53.518Z,85.43
2022-10-19T18:27:55.928Z,84.99
2022-10-19T18:29:57.580Z,84.84
2022-10-19T18:31:59.116Z,84.67
2022-10-19T18:34:02.543Z,84.72
2022-10-19T18:36:07.442Z,85.26
2022-10-19T18:38:09.094Z,84.43
2022-10-19T18:40:11.154Z,84.51
2022-10-19T18:42:12.706Z,84.86
2022-10-19T18:44:14.213Z,86.55
2022-10-19T18:46:18.041Z,86.88
2022-10-19T18:48:19.828Z,87.59
2022-10-19T18:50:21.342Z,87.68
2022-10-19T18:52:24.137Z,88.93
2022-10-19T18:54:26.230Z,89.67
2022-10-19T18:56:28.026Z,90.38
2022-10-19T18:58:29.841Z,89.87
2022-10-19T19:00:31.493Z,89.51
2022-10-19T19:02:46.396Z,89.29
2022-10-19T19:04:48.666Z,88.69
2022-10-19T19:06:50.341Z,88.04
2022-10-19T19:08:55.768Z,88.00
2022-10-19T19:10:57.678Z,88.42
2022-10-19T19:12:59.213Z,88.59
2022-10-19T19:15:00.833Z,89.33
2022-10-19T19:17:02.303Z,89.75
2022-10-19T19:19:04.915Z,90.78
2022-10-19T19:21:15.038Z,91.48
2022-10-19T19:23:16.707Z,92.73
2022-10-19T19:25:19.766Z,90.74
2022-10-19T19:27:21.663Z,89.98
2022-10-19T19:29:23.269Z,90.55
2022-10-19T19:31:25.124Z,91.19
2022-10-19T19:33:26.629Z,90.94
2022-10-19T19:35:28.117Z,90.94
2022-10-19T19:37:29.979Z,91.70
2022-10-19T19:39:31.527Z,92.08
2022-10-19T19:41:34.337Z,92.37
2022-10-19T19:43:37.737Z,92.65
2022-10-19T19:45:39.903Z,92.63
2022-10-19T19:47:41.440Z,92.80
2022-10-19T19:49:43.085Z,93.85
2022-10-19T19:51:44.641Z,94.51
2022-10-19T19:53:47.455Z,95.10
2022-10-19T19:55:49.683Z,95.60
2022-10-19T19:57:52.632Z,96.45
2022-10-19T19:59:54.115Z,96.09
2022-10-19T20:01:55.531Z,96.66
2022-10-19T20:03:58.893Z,97.01
2022-10-19T20:06:01.345Z,96.82
2022-10-19T20:08:03.066Z,97.86
2022-10-19T20:10:04.970Z,97.93
2022-10-19T20:12:06.407Z,97.97
2022-10-19T20:14:09.238Z,98.30
2022-10-19T20:16:13.085Z,98.62
2022-10-19T20:18:14.588Z,97.96
2022-10-19T20:20:16.878Z,98.72
2022-10-19T20:22:18.398Z,98.90
2022-10-19T20:24:19.697Z,99.12
2022-10-19T20:26:23.719Z,99.65
2022-10-19T20:28:26.403Z,99.83
2022-10-19T20:30:29.233Z,100.00
2022-10-19T20:32:30.905Z,100.00
2022-10-19T20:34:34.417Z,100.00
2022-10-19T20:36:35.922Z,100.00
2022-10-19T20:38:38.919Z,100.00
2022-10-19T20:40:40.394Z,100.00
2022-10-19T20:42:41.745Z,100.00
2022-10-19T20:44:44.327Z,100.00
2022-10-19T20:46:50.501Z,100.00
2022-10-19T20:48:52.893Z,100.00
2022-10-19T20:50:54.622Z,100.00
2022-10-19T20:52:56.077Z,100.00
2022-10-19T20:54:57.515Z,100.00
2022-10-19T20:56:59.388Z,100.00
2022-10-19T20:59:05.340Z,100.00
2022-10-19T21:01:08.513Z,100.00
2022-10-19T21:03:11.420Z,100.00
2022-10-19T21:05:14.390Z,100.00
2022-10-19T21:07:15.828Z,100.00
2022-10-19T21:09:18.151Z,100.00
2022-10-19T21:11:21.587Z,100.00
2022-10-19T21:13:23.051Z,100.00
2022-10-19T21:15:25.381Z,100.00
2022-10-19T21:17:26.931Z,100.00
2022-10-19T21:19:30.351Z,100.00
2022-10-19T21:21:33.361Z,100.00
2022-10-19T21:23:34.912Z,100.00
2022-10-19T21:25:36.386Z,100.00
2022-10-19T21:27:38.034Z,100.00
2022-10-19T21:29:39.866Z,100.00
2022-10-19T21:31:45.144Z,100.00
2022-10-19T21:33:49.798Z,100.00
2022-10-19T21:35:52.589Z,100.00
2022-10-19T21:37:54.021Z,100.00
2022-10-19T21:39:55.509Z,100.00
2022-10-19T21:41:56.967Z,100.00
2022-10-19T21:43:58.273Z,100.00
2022-10-19T21:46:01.652Z,100.00
2022-10-19T21:48:03.101Z,100.00
2022-10-19T21:50:04.845Z,100.00
2022-10-19T21:52:08.501Z,100.00
2022-10-19T21:54:13.624Z,100.00
2022-10-19T21:56:15.883Z,100.00
2022-10-19T21:58:17.756Z,100.00
2022-10-19T22:00:19.305Z,100.00
2022-10-19T22:02:20.614Z,100.00
2022-10-19T22:04:22.601Z,100.00
2022-10-19T22:06:24.634Z,100.00
2022-10-19T22:08:27.844Z,100.00
2022-10-19T22:10:29.789Z,100.00
2022-10-19T22:12:31.289Z,100.00
2022-10-19T22:14:32.651Z,100.00
2022-10-19T22:16:34.609Z,100.00
2022-10-19T22:18:36.426Z,100.00
2022-10-19T22:20:39.214Z,100.00
2022-10-19T22:22:40.754Z,100.00
2022-10-19T22:24:43.425Z,100.00
2022-10-19T22:26:46.965Z,100.00
2022-10-19T22:28:51.033Z,100.00
2022-10-19T22:30:53.362Z,100.00
2022-10-19T22:32:54.850Z,100.00
2022-10-19T22:34:56.173Z,100.00
2022-10-19T22:36:57.874Z,100.00
2022-10-19T22:38:59.407Z,100.00
2022-10-19T22:41:02.110Z,100.00
2022-10-19T22:43:06.704Z,100.00
2022-10-19T22:45:08.859Z,100.00
2022-10-19T22:47:10.342Z,100.00
2022-10-19T22:49:11.773Z,100.00
2022-10-19T22:51:13.310Z,100.00
2022-10-19T22:53:14.846Z,100.00
2022-10-19T22:55:16.393Z,100.00
2022-10-19T22:57:19.064Z,100.00
2022-10-19T22:59:20.630Z,100.00
2022-10-19T23:01:22.030Z,100.00
2022-10-19T23:03:23.673Z,100.00
2022-10-19T23:05:25.208Z,100.00
2022-10-19T23:07:26.495Z,100.00
2022-10-19T23:09:27.975Z,100.00
2022-10-19T23:11:29.383Z,100.00
2022-10-19T23:13:32.591Z,100.00
2022-10-19T23:15:34.056Z,100.00
2022-10-19T23:17:35.711Z,100.00
2022-10-19T23:19:37.317Z,100.00
2022-10-19T23:21:38.603Z,100.00
2022-10-19T23:23:40.857Z,100.00
2022-10-19T23:25:42.351Z,100.00
2022-10-19T23:27:43.647Z,100.00
2022-10-19T23:29:46.514Z,100.00
2022-10-19T23:31:48.008Z,100.00
2022-10-19T23:33:49.346Z,100.00
2022-10-19T23:35:51.004Z,100.00
2022-10-19T23:37:52.490Z,100.00
2022-10-19T23:39:53.846Z,100.00
2022-10-19T23:41:55.353Z,100.00
2022-10-19T23:43:56.667Z,100.00
2022-10-19T23:45:59.668Z,100.00
2022-10-19T23:48:01.161Z,100.00
2022-10-19T23:50:02.518Z,100.00
2022-10-19T23:52:04.223Z,100.00
2022-10-19T23:54:05.937Z,100.00
2022-10-19T23:56:09.669Z,100.00
2022-10-19T23:58:11.281Z,100.00
